createdAt,value
2018-12-26T00:01:19.936Z,25.80
2018-12-26T00:06:24.344Z,27.25
2018-12-26T00:11:28.774Z,27.43
2018-12-26T00:16:32.806Z,26.43
2018-12-26T00:21:37.475Z,27.17
2018-12-26T00:26:41.846Z,28.03
2018-12-26T00:31:46.200Z,25.77
2018-12-26T00:36:50.534Z,27.80
2018-12-26T00:41:54.623Z,25.93
2018-12-26T00:46:58.919Z,30.13
2018-12-26T00:52:03.238Z,29.95
2018-12-26T00:57:07.275Z,30.83
2018-12-26T01:02:11.621Z,26.37
2018-12-26T01:07:15.979Z,26.80
2018-12-26T01:12:20.638Z,25.60
2018-12-26T01:17:25.015Z,25.53
2018-12-26T01:22:29.393Z,25.00
2018-12-26T01:27:33.767Z,23.20
2018-12-26T01:32:37.850Z,23.73
2018-12-26T01:37:42.198Z,24.20
2018-12-26T01:42:46.603Z,22.82
2018-12-26T01:47:50.939Z,22.83
2018-12-26T01:52:55.308Z,22.17
2018-12-26T01:57:59.390Z,24.20
2018-12-26T02:03:03.733Z,21.03
2018-12-26T02:08:08.106Z,24.60
2018-12-26T02:13:12.186Z,22.37
2018-12-26T02:18:16.515Z,21.83
2018-12-26T02:23:20.882Z,19.80
2018-12-26T02:28:25.663Z,20.13
2018-12-26T02:33:30.043Z,20.93
2018-12-26T02:38:34.682Z,22.07
2018-12-26T02:43:39.053Z,21.30
2018-12-26T02:48:43.207Z,21.37
2018-12-26T02:53:47.600Z,20.93
2018-12-26T02:58:51.977Z,21.47
2018-12-26T03:03:56.653Z,20.47
2018-12-26T03:09:01.033Z,18.50
2018-12-26T03:14:05.419Z,22.23
2018-12-26T03:19:09.495Z,23.12
2018-12-26T03:24:13.583Z,24.03
2018-12-26T03:29:18.236Z,22.77
2018-12-26T03:34:22.333Z,23.63
2018-12-26T03:39:26.380Z,23.10
2018-12-26T03:44:31.487Z,25.60
2018-12-26T03:49:35.839Z,23.17
2018-12-26T03:54:39.870Z,23.40
2018-12-26T03:59:44.202Z,23.47
2018-12-26T04:04:48.286Z,24.10
2018-12-26T04:09:52.309Z,22.58
2018-12-26T04:14:56.363Z,24.40
2018-12-26T04:20:00.820Z,22.20
2018-12-26T04:25:05.174Z,20.53
2018-12-26T04:30:10.152Z,20.37
2018-12-26T04:35:14.816Z,22.80
2018-12-26T04:40:19.191Z,21.03
2018-12-26T04:45:23.282Z,20.80
2018-12-26T04:50:27.350Z,21.93
2018-12-26T04:55:31.960Z,21.33
2018-12-26T05:00:36.348Z,20.70
2018-12-26T05:05:41.043Z,21.10
2018-12-26T05:10:45.132Z,23.80
2018-12-26T05:15:49.180Z,24.30
2018-12-26T05:20:53.838Z,22.33
2018-12-26T05:25:58.484Z,23.57
2018-12-26T05:31:02.873Z,23.03
2018-12-26T05:36:06.968Z,20.08
2018-12-26T05:41:11.318Z,21.47
2018-12-26T05:46:15.398Z,18.77
2018-12-26T05:51:20.065Z,23.18
2018-12-26T05:56:24.452Z,20.67
2018-12-26T06:01:28.787Z,19.98
2018-12-26T06:06:33.483Z,22.60
2018-12-26T06:11:37.570Z,23.77
2018-12-26T06:16:41.648Z,22.90
2018-12-26T06:21:45.991Z,23.80
2018-12-26T06:26:50.085Z,21.90
2018-12-26T06:31:54.138Z,20.63
2018-12-26T06:36:58.577Z,19.90
2018-12-26T06:42:02.923Z,19.60
2018-12-26T06:47:07.322Z,22.97
2018-12-26T06:52:11.670Z,19.93
2018-12-26T06:57:15.766Z,22.33
2018-12-26T07:02:20.110Z,22.83
2018-12-26T07:07:24.804Z,21.67
2018-12-26T07:12:29.443Z,23.60
2018-12-26T07:17:33.549Z,23.40
2018-12-26T07:22:37.600Z,21.53
2018-12-26T07:27:42.357Z,20.27
2018-12-26T07:32:46.475Z,22.23
2018-12-26T07:37:50.874Z,22.53
2018-12-26T07:42:54.934Z,18.95
2018-12-26T07:47:59.284Z,20.27
2018-12-26T07:53:03.669Z,21.67
2018-12-26T07:58:08.069Z,21.23
2018-12-26T08:03:12.450Z,19.15
2018-12-26T08:08:17.042Z,20.03
2018-12-26T08:13:21.435Z,26.55
2018-12-26T08:18:25.831Z,21.83
2018-12-26T08:23:29.898Z,25.03
2018-12-26T08:28:34.492Z,24.67
2018-12-26T08:33:38.871Z,21.60
2018-12-26T08:38:43.375Z,24.67
2018-12-26T08:43:47.946Z,22.00
2018-12-26T08:48:52.651Z,24.73
2018-12-26T08:53:57.041Z,26.80
2018-12-26T08:59:01.389Z,20.30
2018-12-26T09:04:05.803Z,19.32
2018-12-26T09:09:09.895Z,21.20
2018-12-26T09:14:13.941Z,21.60
2018-12-26T09:19:18.521Z,20.13
2018-12-26T09:24:22.614Z,20.20
2018-12-26T09:29:26.702Z,20.87
2018-12-26T09:34:31.013Z,21.90
2018-12-26T09:39:35.610Z,18.70
2018-12-26T09:44:39.706Z,23.77
2018-12-26T09:49:44.049Z,19.77
2018-12-26T09:54:49.332Z,19.60
2018-12-26T09:59:53.846Z,17.33
2018-12-26T10:04:57.960Z,17.70
2018-12-26T10:10:02.294Z,16.23
2018-12-26T10:15:09.126Z,17.80
2018-12-26T10:20:13.882Z,15.73
2018-12-26T10:25:17.975Z,16.10
2018-12-26T10:30:22.032Z,15.30
2018-12-26T10:35:26.126Z,14.97
2018-12-26T10:40:30.196Z,14.77
2018-12-26T10:45:34.525Z,14.37
2018-12-26T10:50:38.899Z,14.63
2018-12-26T10:55:43.556Z,13.87
2018-12-26T11:00:47.712Z,14.43
2018-12-26T11:05:52.007Z,13.83
2018-12-26T11:10:56.345Z,14.80
2018-12-26T11:16:00.873Z,14.20
2018-12-26T11:21:05.246Z,15.10
2018-12-26T11:26:09.338Z,13.50
2018-12-26T11:31:13.730Z,15.23
2018-12-26T11:36:18.322Z,15.20
2018-12-26T11:41:23.064Z,16.17
2018-12-26T11:46:27.707Z,16.80
2018-12-26T11:51:31.794Z,15.27
2018-12-26T11:56:36.128Z,15.27
2018-12-26T12:01:40.500Z,15.37
2018-12-26T12:06:45.150Z,15.93
2018-12-26T12:11:50.079Z,15.90
2018-12-26T12:16:54.360Z,17.50
2018-12-26T12:21:58.732Z,16.45
2018-12-26T12:27:03.107Z,17.73
2018-12-26T12:32:07.214Z,16.37
2018-12-26T12:37:11.602Z,15.47
2018-12-26T12:42:16.328Z,14.93
2018-12-26T12:47:20.972Z,15.57
2018-12-26T12:52:25.453Z,15.37
2018-12-26T12:57:32.412Z,14.93
2018-12-26T13:02:36.803Z,16.37
2018-12-26T13:07:41.242Z,16.83
2018-12-26T13:13:04.926Z,17.90
2018-12-26T13:18:09.266Z,16.87
2018-12-26T13:23:13.735Z,17.73
2018-12-26T13:28:17.859Z,15.87
2018-12-26T13:33:41.242Z,16.40
2018-12-26T13:38:45.301Z,16.10
2018-12-26T13:43:49.613Z,13.97
2018-12-26T13:48:53.951Z,13.67
2018-12-26T13:53:58.427Z,13.97
2018-12-26T13:59:02.760Z,12.53
2018-12-26T14:04:06.861Z,12.20
2018-12-26T14:09:11.266Z,13.17
2018-12-26T14:14:15.319Z,13.33
2018-12-26T14:19:19.665Z,11.60
2018-12-26T14:24:26.235Z,12.73
2018-12-26T14:29:30.147Z,11.57
2018-12-26T14:34:34.515Z,12.33
2018-12-26T14:39:39.135Z,12.58
2018-12-26T14:44:43.778Z,14.87
2018-12-26T14:49:48.165Z,14.73
2018-12-26T14:54:52.543Z,16.77
2018-12-26T14:59:56.876Z,15.87
2018-12-26T15:05:00.938Z,16.43
2018-12-26T15:10:06.108Z,15.57
2018-12-26T15:15:10.199Z,17.30
2018-12-26T15:20:14.268Z,17.13
2018-12-26T15:25:18.322Z,21.17
2018-12-26T15:30:29.222Z,20.33
2018-12-26T15:35:33.567Z,22.03
2018-12-26T15:40:37.959Z,21.30
2018-12-26T15:45:42.384Z,18.60
2018-12-26T15:50:46.735Z,18.17
2018-12-26T15:55:51.527Z,18.25
2018-12-26T16:00:55.915Z,18.97
2018-12-26T16:06:00.352Z,19.77
2018-12-26T16:11:04.699Z,18.40
2018-12-26T16:16:08.811Z,19.73
2018-12-26T16:21:12.895Z,18.47
2018-12-26T16:26:17.542Z,16.50
2018-12-26T16:31:22.169Z,17.45
2018-12-26T16:36:26.630Z,18.27
2018-12-26T16:41:30.992Z,20.00
2018-12-26T16:46:35.372Z,18.63
2018-12-26T16:51:39.790Z,19.97
2018-12-26T16:56:44.130Z,20.20
2018-12-26T17:01:48.179Z,16.53
2018-12-26T17:06:52.520Z,18.10
2018-12-26T17:11:56.895Z,16.40
2018-12-26T17:17:00.997Z,20.47
2018-12-26T17:22:05.404Z,17.83
2018-12-26T17:27:10.094Z,19.17
2018-12-26T17:32:15.239Z,19.23
2018-12-26T17:37:19.589Z,20.53
2018-12-26T17:42:23.665Z,30.30
2018-12-26T17:47:27.699Z,21.33
2018-12-26T17:52:32.035Z,22.93
2018-12-26T17:57:36.067Z,21.13
2018-12-26T18:02:40.113Z,20.23
2018-12-26T18:07:44.429Z,19.33
2018-12-26T18:12:49.125Z,18.80
2018-12-26T18:17:53.500Z,20.77
2018-12-26T18:22:57.905Z,20.17
2018-12-26T18:28:01.982Z,19.70
2018-12-26T18:33:06.022Z,20.13
2018-12-26T18:38:10.077Z,24.03
2018-12-26T18:43:14.739Z,22.57
2018-12-26T18:48:19.104Z,23.47
2018-12-26T18:53:23.188Z,24.52
2018-12-26T18:58:27.844Z,25.47
2018-12-26T19:03:31.915Z,26.13
2018-12-26T19:08:36.266Z,24.97
2018-12-26T19:13:40.603Z,22.10
2018-12-26T19:18:44.939Z,24.40
2018-12-26T19:23:49.266Z,22.13
2018-12-26T19:28:53.346Z,23.02
2018-12-26T19:33:57.636Z,21.20
2018-12-26T19:39:01.973Z,29.97
2018-12-26T19:44:06.319Z,28.17
2018-12-26T19:49:10.660Z,28.93
2018-12-26T19:54:14.992Z,20.63
2018-12-26T19:59:19.322Z,21.70
2018-12-26T20:04:23.801Z,18.83
2018-12-26T20:09:28.233Z,20.37
2018-12-26T20:14:32.562Z,17.07
2018-12-26T20:19:36.976Z,16.47
2018-12-26T20:24:41.574Z,16.57
2018-12-26T20:29:45.963Z,17.00
2018-12-26T20:34:50.395Z,18.10
2018-12-26T20:39:54.740Z,21.20
2018-12-26T20:44:58.820Z,19.93
2018-12-26T20:50:03.109Z,19.73
2018-12-26T20:55:07.229Z,18.07
2018-12-26T21:00:11.575Z,18.93
2018-12-26T21:05:15.906Z,18.73
2018-12-26T21:10:20.286Z,17.30
2018-12-26T21:15:24.375Z,16.47
2018-12-26T21:20:28.972Z,16.67
2018-12-26T21:25:33.343Z,15.57
2018-12-26T21:30:37.727Z,16.40
2018-12-26T21:35:42.318Z,16.43
2018-12-26T21:40:46.672Z,15.67
2018-12-26T21:45:51.004Z,16.60
2018-12-26T21:50:55.382Z,20.07
2018-12-26T21:55:59.747Z,18.80
2018-12-26T22:01:03.837Z,17.53
2018-12-26T22:06:08.552Z,17.60
2018-12-26T22:11:13.141Z,16.97
2018-12-26T22:16:17.534Z,18.10
2018-12-26T22:21:21.860Z,18.03
2018-12-26T22:26:26.207Z,16.17
2018-12-26T22:31:30.527Z,18.07
2018-12-26T22:36:34.629Z,16.43
2018-12-26T22:41:38.985Z,17.00
2018-12-26T22:46:43.377Z,15.77
2018-12-26T22:51:47.793Z,15.60
2018-12-26T22:56:51.854Z,15.90
2018-12-26T23:01:56.509Z,15.30
2018-12-26T23:07:00.906Z,15.07
2018-12-26T23:12:04.999Z,15.33
2018-12-26T23:17:09.630Z,15.20
2018-12-26T23:22:13.730Z,15.45
2018-12-26T23:27:18.402Z,14.97
2018-12-26T23:32:22.796Z,13.87
2018-12-26T23:37:27.183Z,14.20
2018-12-26T23:42:31.568Z,13.43
2018-12-26T23:47:35.660Z,14.67
2018-12-26T23:52:40.034Z,15.03
2018-12-26T23:57:44.093Z,13.90
